sensor_id;sensor_type;location;lat;lon;timestamp;pressure;altitude;pressure_sealevel;temperature;humidity
24858;BME280;12935;50.782;6.074;2022-11-06T00:00:10;99526.69;;;9.06;100.00
24858;BME280;12935;50.782;6.074;2022-11-06T00:02:37;99513.44;;;9.04;100.00
24858;BME280;12935;50.782;6.074;2022-11-06T00:05:02;99541.03;;;8.96;100.00
24858;BME280;12935;50.782;6.074;2022-11-06T00:07:46;99536.75;;;8.95;100.00
24858;BME280;12935;50.782;6.074;2022-11-06T00:10:12;99533.16;;;8.84;100.00
24858;BME280;12935;50.782;6.074;2022-11-06T00:12:38;99528.94;;;8.90;100.00
24858;BME280;12935;50.782;6.074;2022-11-06T00:15:03;99526.19;;;8.86;100.00
24858;BME280;12935;50.782;6.074;2022-11-06T00:17:29;99519.56;;;8.87;100.00
24858;BME280;12935;50.782;6.074;2022-11-06T00:19:54;99520.81;;;9.00;100.00
24858;BME280;12935;50.782;6.074;2022-11-06T00:22:19;99525.88;;;9.02;100.00
24858;BME280;12935;50.782;6.074;2022-11-06T00:24:44;99516.53;;;9.03;100.00
24858;BME280;12935;50.782;6.074;2022-11-06T00:27:10;99523.56;;;9.04;100.00
24858;BME280;12935;50.782;6.074;2022-11-06T00:29:35;99528.56;;;8.98;100.00
24858;BME280;12935;50.782;6.074;2022-11-06T00:32:00;99523.16;;;9.02;100.00
24858;BME280;12935;50.782;6.074;2022-11-06T00:34:25;99518.47;;;8.99;100.00
24858;BME280;12935;50.782;6.074;2022-11-06T00:36:51;99514.97;;;9.02;100.00
24858;BME280;12935;50.782;6.074;2022-11-06T00:39:16;99490.03;;;8.93;100.00
24858;BME280;12935;50.782;6.074;2022-11-06T00:41:41;99494.34;;;9.04;100.00
24858;BME280;12935;50.782;6.074;2022-11-06T00:44:08;99499.03;;;9.04;100.00
24858;BME280;12935;50.782;6.074;2022-11-06T00:46:33;99485.38;;;9.00;100.00
24858;BME280;12935;50.782;6.074;2022-11-06T00:48:59;99492.75;;;9.00;100.00
24858;BME280;12935;50.782;6.074;2022-11-06T00:51:27;99490.81;;;9.00;100.00
24858;BME280;12935;50.782;6.074;2022-11-06T00:53:58;99491.25;;;9.06;100.00
24858;BME280;12935;50.782;6.074;2022-11-06T00:56:24;99479.94;;;9.04;100.00
24858;BME280;12935;50.782;6.074;2022-11-06T00:58:50;99488.13;;;9.04;100.00
24858;BME280;12935;50.782;6.074;2022-11-06T01:01:18;99479.91;;;8.93;100.00
24858;BME280;12935;50.782;6.074;2022-11-06T01:03:47;99462.38;;;8.91;100.00
24858;BME280;12935;50.782;6.074;2022-11-06T01:06:17;99472.91;;;8.96;100.00
24858;BME280;12935;50.782;6.074;2022-11-06T01:08:43;99458.13;;;8.93;100.00
24858;BME280;12935;50.782;6.074;2022-11-06T01:11:16;99458.13;;;9.00;100.00
24858;BME280;12935;50.782;6.074;2022-11-06T01:13:42;99452.72;;;9.07;100.00
24858;BME280;12935;50.782;6.074;2022-11-06T01:16:10;99460.88;;;9.04;100.00
24858;BME280;12935;50.782;6.074;2022-11-06T01:18:37;99464.38;;;9.04;100.00
24858;BME280;12935;50.782;6.074;2022-11-06T01:21:15;99453.06;;;9.02;100.00
24858;BME280;12935;50.782;6.074;2022-11-06T01:23:42;99452.69;;;9.04;100.00
24858;BME280;12935;50.782;6.074;2022-11-06T01:26:08;99450.75;;;9.04;100.00
24858;BME280;12935;50.782;6.074;2022-11-06T01:28:35;99451.16;;;9.17;100.00
24858;BME280;12935;50.782;6.074;2022-11-06T01:31:04;99457.41;;;9.10;100.00
24858;BME280;12935;50.782;6.074;2022-11-06T01:33:30;99459.28;;;8.96;100.00
24858;BME280;12935;50.782;6.074;2022-11-06T01:35:55;99453.47;;;9.04;100.00
24858;BME280;12935;50.782;6.074;2022-11-06T01:38:21;99459.72;;;9.08;100.00
24858;BME280;12935;50.782;6.074;2022-11-06T01:40:47;99453.09;;;9.06;100.00
24858;BME280;12935;50.782;6.074;2022-11-06T01:43:22;99454.66;;;9.14;100.00
24858;BME280;12935;50.782;6.074;2022-11-06T01:45:50;99455.47;;;9.11;100.00
24858;BME280;12935;50.782;6.074;2022-11-06T01:48:18;99439.09;;;9.07;100.00
24858;BME280;12935;50.782;6.074;2022-11-06T01:50:47;99441.44;;;9.09;100.00
24858;BME280;12935;50.782;6.074;2022-11-06T01:53:14;99457.00;;;9.08;100.00
24858;BME280;12935;50.782;6.074;2022-11-06T01:55:42;99441.38;;;8.98;100.00
24858;BME280;12935;50.782;6.074;2022-11-06T01:58:10;99438.66;;;8.95;100.00
24858;BME280;12935;50.782;6.074;2022-11-06T02:00:37;99437.88;;;8.98;100.00
24858;BME280;12935;50.782;6.074;2022-11-06T02:03:03;99440.59;;;8.94;100.00
24858;BME280;12935;50.782;6.074;2022-11-06T02:05:28;99437.88;;;8.98;100.00
24858;BME280;12935;50.782;6.074;2022-11-06T02:07:55;99447.63;;;9.02;100.00
24858;BME280;12935;50.782;6.074;2022-11-06T02:10:21;99432.06;;;9.06;100.00
24858;BME280;12935;50.782;6.074;2022-11-06T02:13:05;99431.66;;;9.01;100.00
24858;BME280;12935;50.782;6.074;2022-11-06T02:28:59;99420.72;;;8.97;100.00
24858;BME280;12935;50.782;6.074;2022-11-06T02:31:29;99418.81;;;9.01;100.00
24858;BME280;12935;50.782;6.074;2022-11-06T02:34:04;99419.56;;;8.95;100.00
24858;BME280;12935;50.782;6.074;2022-11-06T02:36:33;99424.66;;;9.03;100.00
24858;BME280;12935;50.782;6.074;2022-11-06T02:39:02;99410.25;;;9.03;100.00
24858;BME280;12935;50.782;6.074;2022-11-06T02:41:33;99397.41;;;8.96;100.00
24858;BME280;12935;50.782;6.074;2022-11-06T02:44:02;99396.25;;;9.04;100.00
24858;BME280;12935;50.782;6.074;2022-11-06T02:46:42;99408.25;;;8.89;100.00
24858;BME280;12935;50.782;6.074;2022-11-06T02:51:59;99381.44;;;8.95;100.00
24858;BME280;12935;50.782;6.074;2022-11-06T02:54:31;99369.75;;;9.01;100.00
24858;BME280;12935;50.782;6.074;2022-11-06T02:57:03;99383.41;;;9.08;100.00
24858;BME280;12935;50.782;6.074;2022-11-06T02:59:46;99388.88;;;9.12;100.00
24858;BME280;12935;50.782;6.074;2022-11-06T03:02:20;99388.06;;;9.08;100.00
24858;BME280;12935;50.782;6.074;2022-11-06T03:04:53;99388.06;;;9.04;100.00
24858;BME280;12935;50.782;6.074;2022-11-06T03:07:39;99391.19;;;9.10;100.00
24858;BME280;12935;50.782;6.074;2022-11-06T03:10:06;99394.69;;;9.03;100.00
24858;BME280;12935;50.782;6.074;2022-11-06T03:12:42;99400.13;;;9.00;100.00
24858;BME280;12935;50.782;6.074;2022-11-06T03:15:30;99405.97;;;9.02;100.00
24858;BME280;12935;50.782;6.074;2022-11-06T03:18:24;99417.28;;;9.07;100.00
24858;BME280;12935;50.782;6.074;2022-11-06T03:21:02;99415.72;;;9.10;100.00
24858;BME280;12935;50.782;6.074;2022-11-06T03:23:35;99415.69;;;8.99;100.00
24858;BME280;12935;50.782;6.074;2022-11-06T03:26:17;99417.25;;;9.04;100.00
24858;BME280;12935;50.782;6.074;2022-11-06T03:28:54;99409.88;;;9.04;100.00
24858;BME280;12935;50.782;6.074;2022-11-06T03:31:28;99410.66;;;9.08;100.00
24858;BME280;12935;50.782;6.074;2022-11-06T03:34:01;99416.91;;;9.16;100.00
24858;BME280;12935;50.782;6.074;2022-11-06T03:36:36;99404.84;;;9.21;100.00
24858;BME280;12935;50.782;6.074;2022-11-06T03:39:10;99406.78;;;9.20;100.00
24858;BME280;12935;50.782;6.074;2022-11-06T03:41:45;99405.22;;;9.15;100.00
24858;BME280;12935;50.782;6.074;2022-11-06T03:44:14;99398.63;;;9.20;100.00
24858;BME280;12935;50.782;6.074;2022-11-06T03:46:46;99401.31;;;9.06;100.00
24858;BME280;12935;50.782;6.074;2022-11-06T03:49:16;99398.19;;;9.07;100.00
24858;BME280;12935;50.782;6.074;2022-11-06T03:51:52;99398.59;;;9.17;100.00
24858;BME280;12935;50.782;6.074;2022-11-06T03:54:26;99395.09;;;9.16;100.00
24858;BME280;12935;50.782;6.074;2022-11-06T03:57:01;99382.22;;;9.13;100.00
24858;BME280;12935;50.782;6.074;2022-11-06T03:59:31;99383.81;;;9.18;100.00
24858;BME280;12935;50.782;6.074;2022-11-06T04:01:59;99370.56;;;9.05;100.00
24858;BME280;12935;50.782;6.074;2022-11-06T04:04:44;99384.19;;;9.16;100.00
24858;BME280;12935;50.782;6.074;2022-11-06T04:07:15;99379.53;;;9.20;100.00
24858;BME280;12935;50.782;6.074;2022-11-06T04:09:46;99379.94;;;9.22;100.00
24858;BME280;12935;50.782;6.074;2022-11-06T04:12:33;99372.91;;;9.21;100.00
24858;BME280;12935;50.782;6.074;2022-11-06T04:15:19;99365.50;;;9.18;100.00
24858;BME280;12935;50.782;6.074;2022-11-06T04:17:45;99369.78;;;9.15;100.00
24858;BME280;12935;50.782;6.074;2022-11-06T04:20:15;99374.47;;;9.19;100.00
24858;BME280;12935;50.782;6.074;2022-11-06T04:23:33;99363.19;;;9.31;100.00
24858;BME280;12935;50.782;6.074;2022-11-06T04:26:12;99350.72;;;9.26;100.00
24858;BME280;12935;50.782;6.074;2022-11-06T04:32:10;99328.91;;;9.26;100.00
24858;BME280;12935;50.782;6.074;2022-11-06T04:35:00;99325.03;;;9.27;100.00
24858;BME280;12935;50.782;6.074;2022-11-06T04:37:56;99319.56;;;9.27;100.00
24858;BME280;12935;50.782;6.074;2022-11-06T04:43:12;99308.25;;;9.32;100.00
24858;BME280;12935;50.782;6.074;2022-11-06T04:45:41;99300.47;;;9.34;100.00
24858;BME280;12935;50.782;6.074;2022-11-06T04:48:10;99297.75;;;9.38;100.00
24858;BME280;12935;50.782;6.074;2022-11-06T04:50:40;99290.34;;;9.38;100.00
24858;BME280;12935;50.782;6.074;2022-11-06T04:53:07;99286.06;;;9.41;100.00
24858;BME280;12935;50.782;6.074;2022-11-06T04:55:46;99272.03;;;9.42;100.00
24858;BME280;12935;50.782;6.074;2022-11-06T04:58:11;99268.13;;;9.47;100.00
24858;BME280;12935;50.782;6.074;2022-11-06T05:00:39;99274.75;;;9.53;100.00
24858;BME280;12935;50.782;6.074;2022-11-06T05:03:06;99275.16;;;9.55;100.00
24858;BME280;12935;50.782;6.074;2022-11-06T05:05:31;99270.47;;;9.52;100.00
24858;BME280;12935;50.782;6.074;2022-11-06T05:07:56;99280.59;;;9.55;100.00
24858;BME280;12935;50.782;6.074;2022-11-06T05:10:21;99275.53;;;9.57;100.00
24858;BME280;12935;50.782;6.074;2022-11-06T05:12:47;99268.13;;;9.54;100.00
24858;BME280;12935;50.782;6.074;2022-11-06T05:15:12;99269.66;;;9.62;100.00
24858;BME280;12935;50.782;6.074;2022-11-06T05:17:37;99249.81;;;9.58;100.00
24858;BME280;12935;50.782;6.074;2022-11-06T05:20:03;99253.69;;;9.61;100.00
24858;BME280;12935;50.782;6.074;2022-11-06T05:22:29;99262.28;;;9.59;100.00
24858;BME280;12935;50.782;6.074;2022-11-06T05:25:20;99254.09;;;9.52;100.00
24858;BME280;12935;50.782;6.074;2022-11-06T05:27:45;99250.19;;;9.60;100.00
24858;BME280;12935;50.782;6.074;2022-11-06T05:30:11;99255.63;;;9.64;100.00
24858;BME280;12935;50.782;6.074;2022-11-06T05:32:36;99250.59;;;9.59;100.00
24858;BME280;12935;50.782;6.074;2022-11-06T05:35:01;99259.53;;;9.63;100.00
24858;BME280;12935;50.782;6.074;2022-11-06T05:37:27;99249.81;;;9.51;100.00
24858;BME280;12935;50.782;6.074;2022-11-06T05:39:52;99241.63;;;9.58;100.00
24858;BME280;12935;50.782;6.074;2022-11-06T05:42:17;99241.59;;;9.62;100.00
24858;BME280;12935;50.782;6.074;2022-11-06T05:44:42;99240.81;;;9.61;100.00
24858;BME280;12935;50.782;6.074;2022-11-06T05:47:08;99240.81;;;9.61;100.00
24858;BME280;12935;50.782;6.074;2022-11-06T05:49:33;99244.34;;;9.62;100.00
24858;BME280;12935;50.782;6.074;2022-11-06T05:51:58;99247.84;;;9.62;100.00
24858;BME280;12935;50.782;6.074;2022-11-06T05:54:24;99241.22;;;9.63;100.00
24858;BME280;12935;50.782;6.074;2022-11-06T05:56:49;99242.38;;;9.62;100.00
24858;BME280;12935;50.782;6.074;2022-11-06T05:59:14;99226.41;;;9.64;100.00
24858;BME280;12935;50.782;6.074;2022-11-06T06:01:40;99230.31;;;9.67;100.00
24858;BME280;12935;50.782;6.074;2022-11-06T06:04:05;99234.97;;;9.66;100.00
24858;BME280;12935;50.782;6.074;2022-11-06T06:06:30;99231.50;;;9.59;100.00
24858;BME280;12935;50.782;6.074;2022-11-06T06:08:56;99236.94;;;9.62;100.00
24858;BME280;12935;50.782;6.074;2022-11-06T06:11:21;99224.09;;;9.52;100.00
24858;BME280;12935;50.782;6.074;2022-11-06T06:13:46;99237.34;;;9.57;100.00
24858;BME280;12935;50.782;6.074;2022-11-06T06:16:12;99229.94;;;9.58;100.00
24858;BME280;12935;50.782;6.074;2022-11-06T06:18:38;99221.75;;;9.58;100.00
24858;BME280;12935;50.782;6.074;2022-11-06T06:21:03;99227.56;;;9.63;100.00
24858;BME280;12935;50.782;6.074;2022-11-06T06:23:28;99220.22;;;9.53;100.00
24858;BME280;12935;50.782;6.074;2022-11-06T06:25:55;99232.28;;;9.56;100.00
24858;BME280;12935;50.782;6.074;2022-11-06T06:28:20;99227.59;;;9.56;100.00
24858;BME280;12935;50.782;6.074;2022-11-06T06:30:46;99222.94;;;9.53;100.00
24858;BME280;12935;50.782;6.074;2022-11-06T06:33:11;99233.84;;;9.57;100.00
24858;BME280;12935;50.782;6.074;2022-11-06T06:35:36;99231.50;;;9.52;100.00
24858;BME280;12935;50.782;6.074;2022-11-06T06:38:02;99225.69;;;9.42;100.00
24858;BME280;12935;50.782;6.074;2022-11-06T06:40:27;99211.66;;;9.37;100.00
24858;BME280;12935;50.782;6.074;2022-11-06T06:42:57;99213.22;;;9.38;100.00
24858;BME280;12935;50.782;6.074;2022-11-06T06:45:23;99214.41;;;9.26;100.00
24858;BME280;12935;50.782;6.074;2022-11-06T06:47:49;99215.94;;;9.31;100.00
24858;BME280;12935;50.782;6.074;2022-11-06T06:50:14;99221.78;;;9.33;100.00
24858;BME280;12935;50.782;6.074;2022-11-06T06:52:39;99209.72;;;9.30;100.00
24858;BME280;12935;50.782;6.074;2022-11-06T06:55:05;99214.03;;;9.24;100.00
24858;BME280;12935;50.782;6.074;2022-11-06T06:57:30;99225.72;;;9.21;100.00
24858;BME280;12935;50.782;6.074;2022-11-06T06:59:55;99218.28;;;9.29;100.00
24858;BME280;12935;50.782;6.074;2022-11-06T07:02:21;99222.56;;;9.37;100.00
24858;BME280;12935;50.782;6.074;2022-11-06T07:04:46;99216.34;;;9.33;100.00
24858;BME280;12935;50.782;6.074;2022-11-06T07:07:11;99221.00;;;9.39;100.00
24858;BME280;12935;50.782;6.074;2022-11-06T07:09:37;99237.34;;;9.50;100.00
24858;BME280;12935;50.782;6.074;2022-11-06T07:12:03;99238.09;;;9.65;100.00
24858;BME280;12935;50.782;6.074;2022-11-06T07:14:28;99238.13;;;9.58;100.00
24858;BME280;12935;50.782;6.074;2022-11-06T07:16:53;99236.19;;;9.55;100.00
24858;BME280;12935;50.782;6.074;2022-11-06T07:19:18;99239.28;;;9.57;100.00
24858;BME280;12935;50.782;6.074;2022-11-06T07:21:44;99244.72;;;9.64;100.00
24858;BME280;12935;50.782;6.074;2022-11-06T07:24:09;99235.75;;;9.63;100.00
24858;BME280;12935;50.782;6.074;2022-11-06T07:26:34;99229.13;;;9.68;100.00
24858;BME280;12935;50.782;6.074;2022-11-06T07:29:00;99225.19;;;9.76;100.00
24858;BME280;12935;50.782;6.074;2022-11-06T07:31:25;99230.66;;;9.79;100.00
24858;BME280;12935;50.782;6.074;2022-11-06T07:33:50;99222.47;;;9.83;100.00
24858;BME280;12935;50.782;6.074;2022-11-06T07:36:16;99224.41;;;9.86;100.00
24858;BME280;12935;50.782;6.074;2022-11-06T07:38:42;99230.59;;;9.94;100.00
24858;BME280;12935;50.782;6.074;2022-11-06T07:41:12;99229.41;;;9.98;100.00
24858;BME280;12935;50.782;6.074;2022-11-06T07:43:38;99227.88;;;9.97;100.00
24858;BME280;12935;50.782;6.074;2022-11-06T07:46:06;99228.63;;;9.98;100.00
24858;BME280;12935;50.782;6.074;2022-11-06T07:48:32;99232.19;;;9.88;100.00
24858;BME280;12935;50.782;6.074;2022-11-06T07:51:01;99231.00;;;9.92;100.00
24858;BME280;12935;50.782;6.074;2022-11-06T07:53:26;99229.81;;;9.93;100.00
24858;BME280;12935;50.782;6.074;2022-11-06T07:55:54;99232.59;;;9.82;100.00
24858;BME280;12935;50.782;6.074;2022-11-06T07:58:20;99227.53;;;9.81;100.00
24858;BME280;12935;50.782;6.074;2022-11-06T08:00:49;99233.38;;;9.87;100.00
24858;BME280;12935;50.782;6.074;2022-11-06T08:03:15;99230.63;;;9.87;100.00
24858;BME280;12935;50.782;6.074;2022-11-06T08:05:41;99224.41;;;9.86;100.00
24858;BME280;12935;50.782;6.074;2022-11-06T08:08:07;99227.91;;;9.90;100.00
24858;BME280;12935;50.782;6.074;2022-11-06T08:10:32;99209.19;;;9.89;100.00
24858;BME280;12935;50.782;6.074;2022-11-06T08:12:59;99225.53;;;9.96;100.00
24858;BME280;12935;50.782;6.074;2022-11-06T08:15:25;99214.59;;;10.03;100.00
24858;BME280;12935;50.782;6.074;2022-11-06T08:17:50;99211.06;;;10.06;100.00
24858;BME280;12935;50.782;6.074;2022-11-06T08:20:15;99209.16;;;9.99;100.00
24858;BME280;12935;50.782;6.074;2022-11-06T08:22:41;99198.25;;;9.92;100.00
24858;BME280;12935;50.782;6.074;2022-11-06T08:25:07;99200.63;;;9.79;100.00
24858;BME280;12935;50.782;6.074;2022-11-06T08:27:32;99198.66;;;9.91;100.00
24858;BME280;12935;50.782;6.074;2022-11-06T08:29:57;99196.66;;;9.98;100.00
24858;BME280;12935;50.782;6.074;2022-11-06T08:32:23;99196.66;;;9.98;100.00
24858;BME280;12935;50.782;6.074;2022-11-06T08:34:48;99196.25;;;10.07;100.00
24858;BME280;12935;50.782;6.074;2022-11-06T08:37:13;99198.94;;;10.17;100.00
24858;BME280;12935;50.782;6.074;2022-11-06T08:39:38;99192.25;;;10.26;100.00
24858;BME280;12935;50.782;6.074;2022-11-06T08:42:04;99194.66;;;10.20;100.00
24858;BME280;12935;50.782;6.074;2022-11-06T08:44:29;99187.63;;;10.23;100.00
24858;BME280;12935;50.782;6.074;2022-11-06T08:46:55;99175.09;;;10.25;100.00
24858;BME280;12935;50.782;6.074;2022-11-06T08:49:20;99180.13;;;10.34;100.00
24858;BME280;12935;50.782;6.074;2022-11-06T08:51:45;99163.28;;;10.42;100.00
24858;BME280;12935;50.782;6.074;2022-11-06T08:54:11;99165.09;;;10.63;100.00
24858;BME280;12935;50.782;6.074;2022-11-06T08:56:37;99158.59;;;10.46;100.00
24858;BME280;12935;50.782;6.074;2022-11-06T08:59:02;99155.31;;;10.69;100.00
24858;BME280;12935;50.782;6.074;2022-11-06T09:01:27;99154.41;;;10.83;100.00
24858;BME280;12935;50.782;6.074;2022-11-06T09:03:53;99144.59;;;10.89;100.00
24858;BME280;12935;50.782;6.074;2022-11-06T09:06:18;99138.97;;;11.07;100.00
24858;BME280;12935;50.782;6.074;2022-11-06T09:08:43;99136.44;;;11.27;100.00
24858;BME280;12935;50.782;6.074;2022-11-06T09:11:09;99129.63;;;11.42;100.00
24858;BME280;12935;50.782;6.074;2022-11-06T09:13:35;99120.31;;;11.66;100.00
24858;BME280;12935;50.782;6.074;2022-11-06T09:16:01;99123.59;;;11.88;100.00
24858;BME280;12935;50.782;6.074;2022-11-06T09:18:26;99117.84;;;12.09;100.00
24858;BME280;12935;50.782;6.074;2022-11-06T09:20:55;99117.88;;;12.33;100.00
24858;BME280;12935;50.782;6.074;2022-11-06T09:23:21;99126.97;;;12.53;100.00
24858;BME280;12935;50.782;6.074;2022-11-06T09:25:46;99128.72;;;12.67;100.00
24858;BME280;12935;50.782;6.074;2022-11-06T09:28:11;99123.03;;;12.77;99.55
24858;BME280;12935;50.782;6.074;2022-11-06T09:30:37;99125.13;;;12.93;97.56
24858;BME280;12935;50.782;6.074;2022-11-06T09:33:03;99125.50;;;12.95;94.64
24858;BME280;12935;50.782;6.074;2022-11-06T09:35:31;99116.31;;;12.58;93.51
24858;BME280;12935;50.782;6.074;2022-11-06T09:38:05;99120.03;;;12.72;93.13
24858;BME280;12935;50.782;6.074;2022-11-06T09:43:45;99105.56;;;12.44;93.58
24858;BME280;12935;50.782;6.074;2022-11-06T09:48:48;99112.59;;;12.45;91.27
24858;BME280;12935;50.782;6.074;2022-11-06T09:53:56;99116.81;;;12.26;94.75
24858;BME280;12935;50.782;6.074;2022-11-06T09:56:28;99102.34;;;12.26;92.17
24858;BME280;12935;50.782;6.074;2022-11-06T09:58:55;99092.22;;;12.23;90.01
24858;BME280;12935;50.782;6.074;2022-11-06T10:01:33;99076.84;;;12.29;90.34
24858;BME280;12935;50.782;6.074;2022-11-06T10:04:01;99081.31;;;12.19;91.35
24858;BME280;12935;50.782;6.074;2022-11-06T10:06:28;99073.97;;;12.13;93.01
24858;BME280;12935;50.782;6.074;2022-11-06T10:08:59;99069.72;;;12.35;92.19
24858;BME280;12935;50.782;6.074;2022-11-06T10:11:44;99075.13;;;12.39;91.46
24858;BME280;12935;50.782;6.074;2022-11-06T10:17:41;99081.03;;;12.37;90.57
24858;BME280;12935;50.782;6.074;2022-11-06T10:20:17;99070.59;;;12.28;89.53
24858;BME280;12935;50.782;6.074;2022-11-06T10:23:04;99071.94;;;12.17;92.07
24858;BME280;12935;50.782;6.074;2022-11-06T10:25:40;99066.56;;;12.37;93.20
24858;BME280;12935;50.782;6.074;2022-11-06T10:28:33;99069.72;;;12.35;90.55
24858;BME280;12935;50.782;6.074;2022-11-06T10:31:17;99061.41;;;12.42;90.19
24858;BME280;12935;50.782;6.074;2022-11-06T10:33:57;99072.34;;;12.42;89.10
24858;BME280;12935;50.782;6.074;2022-11-06T10:36:46;99065.69;;;12.43;88.93
24858;BME280;12935;50.782;6.074;2022-11-06T10:39:19;99062.28;;;12.36;89.33
24858;BME280;12935;50.782;6.074;2022-11-06T10:41:50;99052.31;;;12.45;88.46
24858;BME280;12935;50.782;6.074;2022-11-06T10:44:24;99044.56;;;12.63;86.96
24858;BME280;12935;50.782;6.074;2022-11-06T10:47:00;99052.72;;;12.90;86.19
24858;BME280;12935;50.782;6.074;2022-11-06T10:49:38;99056.75;;;13.06;83.13
24858;BME280;12935;50.782;6.074;2022-11-06T10:58:03;99039.94;;;13.23;80.71
24858;BME280;12935;50.782;6.074;2022-11-06T11:00:30;99031.72;;;13.43;80.10
24858;BME280;12935;50.782;6.074;2022-11-06T11:02:59;99031.59;;;13.30;79.87
24858;BME280;12935;50.782;6.074;2022-11-06T11:05:26;99022.88;;;13.36;81.15
24858;BME280;12935;50.782;6.074;2022-11-06T11:07:56;99022.22;;;13.48;80.64
24858;BME280;12935;50.782;6.074;2022-11-06T11:12:51;99013.88;;;14.03;78.99
24858;BME280;12935;50.782;6.074;2022-11-06T11:15:21;98996.84;;;14.45;71.45
24858;BME280;12935;50.782;6.074;2022-11-06T11:18:15;98984.75;;;14.71;71.30
24858;BME280;12935;50.782;6.074;2022-11-06T11:20:43;98985.47;;;14.59;68.57
24858;BME280;12935;50.782;6.074;2022-11-06T11:23:23;98994.84;;;14.13;69.15
24858;BME280;12935;50.782;6.074;2022-11-06T11:25:53;98982.31;;;14.12;70.75
24858;BME280;12935;50.782;6.074;2022-11-06T11:28:28;98979.16;;;13.45;70.77
24858;BME280;12935;50.782;6.074;2022-11-06T11:31:05;98973.31;;;13.43;72.88
24858;BME280;12935;50.782;6.074;2022-11-06T11:33:32;98975.56;;;13.48;72.15
24858;BME280;12935;50.782;6.074;2022-11-06T11:35:58;98960.84;;;13.22;73.33
24858;BME280;12935;50.782;6.074;2022-11-06T11:38:23;98943.34;;;13.12;74.96
24858;BME280;12935;50.782;6.074;2022-11-06T11:40:50;98947.47;;;13.40;75.39
24858;BME280;12935;50.782;6.074;2022-11-06T11:43:26;98948.56;;;13.62;73.39
24858;BME280;12935;50.782;6.074;2022-11-06T11:51:26;98908.41;;;13.36;71.33
24858;BME280;12935;50.782;6.074;2022-11-06T11:53:56;98907.09;;;13.41;72.31
24858;BME280;12935;50.782;6.074;2022-11-06T11:56:24;98903.97;;;13.22;69.62
24858;BME280;12935;50.782;6.074;2022-11-06T11:58:53;98900.56;;;13.18;70.11
24858;BME280;12935;50.782;6.074;2022-11-06T12:01:33;98907.50;;;13.23;70.16
24858;BME280;12935;50.782;6.074;2022-11-06T12:04:00;98895.78;;;13.03;69.29
24858;BME280;12935;50.782;6.074;2022-11-06T12:06:31;98890.78;;;12.97;67.94
24858;BME280;12935;50.782;6.074;2022-11-06T12:08:57;98882.16;;;12.79;66.65
24858;BME280;12935;50.782;6.074;2022-11-06T12:11:24;98870.38;;;12.98;67.01
24858;BME280;12935;50.782;6.074;2022-11-06T12:16:43;98868.50;;;12.95;65.03
24858;BME280;12935;50.782;6.074;2022-11-06T12:19:10;98872.38;;;12.78;65.75
24858;BME280;12935;50.782;6.074;2022-11-06T12:21:38;98881.31;;;12.82;67.24
24858;BME280;12935;50.782;6.074;2022-11-06T12:24:29;98879.34;;;12.83;65.59
24858;BME280;12935;50.782;6.074;2022-11-06T12:27:07;98875.97;;;12.75;66.19
24858;BME280;12935;50.782;6.074;2022-11-06T12:29:40;98870.91;;;12.34;66.60
24858;BME280;12935;50.782;6.074;2022-11-06T12:32:33;98862.94;;;12.43;67.10
24858;BME280;12935;50.782;6.074;2022-11-06T12:35:08;98853.56;;;12.41;64.96
24858;BME280;12935;50.782;6.074;2022-11-06T12:40:29;98848.16;;;12.37;65.71
24858;BME280;12935;50.782;6.074;2022-11-06T12:45:25;98842.53;;;12.24;66.79
24858;BME280;12935;50.782;6.074;2022-11-06T12:48:03;98837.13;;;12.21;67.02
24858;BME280;12935;50.782;6.074;2022-11-06T12:50:50;98824.97;;;12.22;67.13
24858;BME280;12935;50.782;6.074;2022-11-06T12:56:21;98836.50;;;12.33;67.93
24858;BME280;12935;50.782;6.074;2022-11-06T12:59:01;98836.63;;;12.46;67.95
24858;BME280;12935;50.782;6.074;2022-11-06T13:01:41;98829.28;;;12.43;68.32
24858;BME280;12935;50.782;6.074;2022-11-06T13:04:16;98826.38;;;12.50;68.12
24858;BME280;12935;50.782;6.074;2022-11-06T13:12:23;98803.25;;;12.31;70.12
24858;BME280;12935;50.782;6.074;2022-11-06T13:15:03;98820.84;;;12.34;69.86
24858;BME280;12935;50.782;6.074;2022-11-06T13:17:40;98817.38;;;12.29;69.13
24858;BME280;12935;50.782;6.074;2022-11-06T13:20:26;98814.66;;;12.29;69.45
24858;BME280;12935;50.782;6.074;2022-11-06T13:23:08;98815.16;;;12.24;69.42
24858;BME280;12935;50.782;6.074;2022-11-06T13:25:47;98805.38;;;12.23;68.74
24858;BME280;12935;50.782;6.074;2022-11-06T13:30:41;98804.81;;;12.12;66.69
24858;BME280;12935;50.782;6.074;2022-11-06T13:33:15;98806.50;;;12.06;66.89
24858;BME280;12935;50.782;6.074;2022-11-06T13:35:45;98808.88;;;12.04;67.86
24858;BME280;12935;50.782;6.074;2022-11-06T13:38:16;98807.91;;;11.94;67.70
24858;BME280;12935;50.782;6.074;2022-11-06T13:40:47;98809.22;;;11.86;67.66
24858;BME280;12935;50.782;6.074;2022-11-06T13:43:22;98815.41;;;11.90;68.05
24858;BME280;12935;50.782;6.074;2022-11-06T13:51:22;98814.69;;;11.86;69.87
24858;BME280;12935;50.782;6.074;2022-11-06T14:07:55;98826.00;;;11.88;71.31
24858;BME280;12935;50.782;6.074;2022-11-06T14:10:23;98805.56;;;11.70;72.66
24858;BME280;12935;50.782;6.074;2022-11-06T14:12:52;98834.81;;;11.76;73.36
24858;BME280;12935;50.782;6.074;2022-11-06T14:17:54;98834.13;;;11.45;79.18
24858;BME280;12935;50.782;6.074;2022-11-06T14:20:35;98834.22;;;11.38;80.13
24858;BME280;12935;50.782;6.074;2022-11-06T14:26:03;98825.31;;;11.34;83.82
24858;BME280;12935;50.782;6.074;2022-11-06T14:28:30;98831.66;;;11.28;84.37
24858;BME280;12935;50.782;6.074;2022-11-06T14:30:56;98810.84;;;11.10;85.95
24858;BME280;12935;50.782;6.074;2022-11-06T14:36:33;98803.41;;;11.11;87.83
24858;BME280;12935;50.782;6.074;2022-11-06T14:38:58;98790.75;;;10.97;88.76
24858;BME280;12935;50.782;6.074;2022-11-06T14:44:05;98796.03;;;10.81;91.38
24858;BME280;12935;50.782;6.074;2022-11-06T14:46:36;98795.75;;;10.72;93.02
24858;BME280;12935;50.782;6.074;2022-11-06T14:49:08;98792.38;;;10.64;92.64
24858;BME280;12935;50.782;6.074;2022-11-06T14:51:40;98772.63;;;10.53;95.20